createdAt,value
2022-12-09T00:01:10.866Z,22.60
2022-12-09T00:03:39.634Z,20.58
2022-12-09T00:06:14.555Z,24.85
2022-12-09T00:08:41.791Z,18.33
2022-12-09T00:11:09.272Z,15.43
2022-12-09T00:13:36.966Z,19.40
2022-12-09T00:16:14.789Z,20.17
2022-12-09T00:18:42.828Z,18.45
2022-12-09T00:21:18.983Z,28.10
2022-12-09T00:23:46.435Z,12.57
2022-12-09T00:26:14.441Z,14.57
2022-12-09T00:28:41.612Z,23.23
2022-12-09T00:31:12.797Z,21.02
2022-12-09T00:33:39.931Z,15.15
2022-12-09T00:36:12.277Z,14.38
2022-12-09T00:38:39.653Z,11.45
2022-12-09T00:41:06.996Z,14.98
2022-12-09T00:43:34.478Z,15.07
2022-12-09T00:46:02.083Z,19.77
2022-12-09T00:48:29.457Z,13.07
2022-12-09T00:50:56.997Z,14.75
2022-12-09T00:53:24.018Z,13.73
2022-12-09T00:55:51.200Z,15.82
2022-12-09T00:58:18.280Z,13.32
2022-12-09T01:00:46.135Z,18.58
2022-12-09T01:03:17.709Z,18.88
2022-12-09T01:05:44.986Z,17.02
2022-12-09T01:08:12.529Z,17.20
2022-12-09T01:10:41.469Z,18.42
2022-12-09T01:13:09.037Z,11.45
2022-12-09T01:15:37.475Z,15.82
2022-12-09T01:18:05.099Z,17.95
2022-12-09T01:20:35.477Z,16.95
2022-12-09T01:23:03.935Z,15.73
2022-12-09T01:25:31.181Z,18.02
2022-12-09T01:27:58.607Z,15.65
2022-12-09T01:30:25.907Z,20.23
2022-12-09T01:32:53.230Z,17.55
2022-12-09T01:35:20.676Z,14.57
2022-12-09T01:37:47.957Z,24.27
2022-12-09T01:40:17.714Z,18.55
2022-12-09T01:42:45.044Z,17.05
2022-12-09T01:45:22.117Z,21.02
2022-12-09T01:47:57.075Z,15.30
2022-12-09T01:50:27.347Z,21.25
2022-12-09T01:52:55.580Z,19.50
2022-12-09T01:55:24.591Z,18.73
2022-12-09T01:57:53.123Z,15.10
2022-12-09T02:00:21.506Z,18.88
2022-12-09T02:02:51.525Z,18.98
2022-12-09T02:05:21.268Z,19.45
2022-12-09T02:07:54.385Z,16.52
2022-12-09T02:10:22.104Z,23.80
2022-12-09T02:13:14.332Z,27.00
2022-12-09T02:15:49.669Z,17.98
2022-12-09T02:18:38.648Z,15.90
2022-12-09T02:21:12.597Z,21.58
2022-12-09T02:23:59.372Z,13.77
2022-12-09T02:26:40.277Z,18.50
2022-12-09T02:29:08.555Z,18.63
2022-12-09T02:31:56.221Z,29.50
2022-12-09T02:34:28.843Z,16.00
2022-12-09T02:37:13.916Z,18.35
2022-12-09T02:39:53.558Z,18.42
2022-12-09T02:42:26.208Z,19.58
2022-12-09T02:44:53.938Z,21.05
2022-12-09T02:47:26.686Z,17.08
2022-12-09T02:50:02.930Z,17.98
2022-12-09T02:52:32.709Z,16.58
2022-12-09T02:55:04.225Z,28.92
2022-12-09T02:57:34.433Z,20.40
2022-12-09T03:00:01.731Z,24.50
2022-12-09T03:02:33.629Z,16.08
2022-12-09T03:05:27.265Z,16.73
2022-12-09T03:08:21.774Z,15.73
2022-12-09T03:11:07.625Z,15.32
2022-12-09T03:13:39.949Z,17.00
2022-12-09T03:16:39.252Z,24.27
2022-12-09T03:19:29.733Z,17.50
2022-12-09T03:21:59.247Z,23.05
2022-12-09T03:24:34.759Z,18.50
2022-12-09T03:27:09.168Z,22.88
2022-12-09T03:29:41.577Z,17.58
2022-12-09T03:32:11.820Z,16.60
2022-12-09T03:34:44.892Z,19.75
2022-12-09T03:37:15.085Z,16.27
2022-12-09T03:39:43.307Z,19.00
2022-12-09T03:42:19.073Z,12.90
2022-12-09T03:44:56.758Z,13.65
2022-12-09T03:47:24.443Z,19.15
2022-12-09T03:49:51.455Z,11.07
2022-12-09T03:52:36.005Z,19.45
2022-12-09T03:55:13.946Z,12.35
2022-12-09T03:57:45.195Z,18.05
2022-12-09T04:00:13.313Z,17.63
2022-12-09T04:02:40.790Z,13.20
2022-12-09T04:05:09.421Z,15.55
2022-12-09T04:07:36.504Z,21.42
2022-12-09T04:10:05.353Z,16.50
2022-12-09T04:12:32.733Z,18.13
2022-12-09T04:14:59.944Z,15.95
2022-12-09T04:17:27.213Z,21.30
2022-12-09T04:19:54.381Z,18.15
2022-12-09T04:22:21.350Z,15.52
2022-12-09T04:24:48.608Z,15.85
2022-12-09T04:27:15.878Z,19.45
2022-12-09T04:29:42.958Z,14.82
2022-12-09T04:32:10.293Z,13.93
2022-12-09T04:34:37.705Z,14.18
2022-12-09T04:37:05.154Z,15.88
2022-12-09T04:39:32.193Z,22.00
2022-12-09T04:41:59.296Z,16.67
2022-12-09T04:44:26.751Z,16.80
2022-12-09T04:46:54.174Z,19.70
2022-12-09T04:49:21.371Z,20.75
2022-12-09T04:51:48.496Z,13.90
2022-12-09T04:54:16.025Z,19.67
2022-12-09T04:56:43.725Z,16.45
2022-12-09T04:59:12.342Z,23.50
2022-12-09T05:01:39.357Z,15.60
2022-12-09T05:04:08.222Z,21.65
2022-12-09T05:06:36.745Z,18.77
2022-12-09T05:09:04.476Z,18.33
2022-12-09T05:11:32.089Z,17.85
2022-12-09T05:13:59.751Z,17.70
2022-12-09T05:16:27.174Z,16.25
2022-12-09T05:18:54.709Z,18.08
2022-12-09T05:21:22.435Z,17.33
2022-12-09T05:23:49.819Z,19.83
2022-12-09T05:26:20.134Z,21.73
2022-12-09T05:28:48.153Z,17.00
2022-12-09T05:31:18.136Z,16.23
2022-12-09T05:33:46.818Z,20.50
2022-12-09T05:36:16.327Z,17.35
2022-12-09T05:38:43.772Z,22.50
2022-12-09T05:41:11.292Z,16.80
2022-12-09T05:43:39.668Z,19.27
2022-12-09T05:46:07.656Z,17.25
2022-12-09T05:48:35.472Z,18.30
2022-12-09T05:51:06.627Z,17.40
2022-12-09T05:53:34.555Z,22.40
2022-12-09T05:56:02.097Z,21.40
2022-12-09T05:58:29.610Z,19.55
2022-12-09T06:00:58.053Z,20.13
2022-12-09T06:03:25.417Z,22.02
2022-12-09T06:05:52.700Z,20.13
2022-12-09T06:08:20.577Z,21.95
2022-12-09T06:10:48.104Z,23.30
2022-12-09T06:13:15.331Z,16.52
2022-12-09T06:15:42.558Z,17.88
2022-12-09T06:18:09.812Z,21.17
2022-12-09T06:20:41.132Z,18.60
2022-12-09T06:23:08.631Z,21.70
2022-12-09T06:25:36.245Z,16.30
2022-12-09T06:28:04.211Z,16.70
2022-12-09T06:30:31.815Z,16.27
2022-12-09T06:32:59.190Z,16.70
2022-12-09T06:35:26.262Z,21.42
2022-12-09T06:37:53.705Z,21.13
2022-12-09T06:40:24.861Z,26.58
2022-12-09T06:42:52.530Z,20.27
2022-12-09T06:45:20.593Z,24.77
2022-12-09T06:47:48.460Z,33.65
2022-12-09T06:50:16.230Z,19.42
2022-12-09T06:52:43.575Z,22.83
2022-12-09T06:55:11.545Z,16.55
2022-12-09T06:57:38.905Z,18.35
2022-12-09T07:00:06.685Z,19.42
2022-12-09T07:02:36.697Z,23.10
2022-12-09T07:05:05.536Z,16.42
2022-12-09T07:07:33.836Z,16.13
2022-12-09T07:10:06.574Z,22.63
2022-12-09T07:12:34.068Z,20.17
2022-12-09T07:15:01.352Z,23.48
2022-12-09T07:17:28.847Z,31.45
2022-12-09T07:20:00.145Z,26.05
2022-12-09T07:22:32.473Z,26.50
2022-12-09T07:24:59.700Z,16.80
2022-12-09T07:27:26.840Z,18.98
2022-12-09T07:29:54.126Z,16.05
2022-12-09T07:32:21.585Z,20.15
2022-12-09T07:34:48.874Z,25.38
2022-12-09T07:37:16.474Z,16.17
2022-12-09T07:39:43.691Z,21.77
2022-12-09T07:42:10.713Z,20.50
2022-12-09T07:44:49.740Z,20.10
2022-12-09T07:47:17.184Z,25.83
2022-12-09T07:49:44.629Z,17.85
2022-12-09T07:52:12.670Z,16.40
2022-12-09T07:54:39.895Z,16.90
2022-12-09T07:57:07.370Z,19.15
2022-12-09T07:59:34.424Z,21.95
2022-12-09T08:02:06.586Z,20.13
2022-12-09T08:04:36.387Z,19.40
2022-12-09T08:07:03.803Z,18.65
2022-12-09T08:09:31.220Z,17.35
2022-12-09T08:11:58.554Z,25.20
2022-12-09T08:14:25.840Z,17.95
2022-12-09T08:16:53.190Z,18.02
2022-12-09T08:19:20.983Z,17.50
2022-12-09T08:21:54.205Z,16.80
2022-12-09T08:24:22.002Z,11.48
2022-12-09T08:26:51.377Z,20.83
2022-12-09T08:29:20.783Z,16.15
2022-12-09T08:31:48.235Z,14.50
2022-12-09T08:34:16.042Z,14.10
2022-12-09T08:36:43.700Z,13.50
2022-12-09T08:39:13.310Z,14.70
2022-12-09T08:41:41.192Z,19.40
2022-12-09T08:44:08.841Z,16.30
2022-12-09T08:46:40.226Z,14.85
2022-12-09T08:51:38.301Z,11.93
2022-12-09T08:54:06.783Z,18.77
2022-12-09T08:56:34.426Z,15.57
2022-12-09T08:59:02.087Z,16.08
2022-12-09T09:01:36.137Z,18.58
2022-12-09T09:04:10.088Z,15.63
2022-12-09T09:06:41.499Z,13.88
2022-12-09T09:09:10.856Z,11.75
2022-12-09T09:11:39.422Z,10.43
2022-12-09T09:14:08.500Z,16.90
2022-12-09T09:16:43.126Z,17.08
2022-12-09T09:19:16.587Z,15.55
2022-12-09T09:21:45.739Z,19.13
2022-12-09T09:24:16.249Z,21.98
2022-12-09T09:26:46.313Z,17.35
2022-12-09T09:29:16.096Z,25.02
2022-12-09T09:31:44.111Z,20.92
2022-12-09T09:34:12.190Z,23.45
2022-12-09T09:36:40.394Z,21.23
2022-12-09T09:39:07.715Z,25.05
2022-12-09T09:42:17.850Z,27.33
2022-12-09T09:44:49.378Z,28.08
2022-12-09T09:47:26.177Z,21.33
2022-12-09T09:50:09.872Z,24.50
2022-12-09T09:52:42.708Z,23.92
2022-12-09T09:55:18.366Z,24.60
2022-12-09T09:57:59.591Z,28.90
2022-12-09T10:00:44.407Z,28.60
2022-12-09T10:03:28.255Z,34.05
2022-12-09T10:05:58.927Z,25.08
2022-12-09T10:08:49.656Z,22.45
2022-12-09T10:11:56.326Z,28.05
2022-12-09T10:14:41.894Z,31.92
2022-12-09T10:17:28.111Z,27.35
2022-12-09T10:20:12.802Z,25.88
2022-12-09T10:22:50.597Z,20.88
2022-12-09T10:25:23.066Z,24.50
2022-12-09T10:28:00.362Z,25.52
2022-12-09T10:30:35.347Z,22.45
2022-12-09T10:33:04.810Z,25.55
2022-12-09T10:35:34.698Z,26.70
2022-12-09T10:38:11.135Z,24.77
2022-12-09T10:40:47.435Z,21.98
2022-12-09T10:43:41.302Z,31.45
2022-12-09T10:46:18.500Z,26.77
2022-12-09T10:48:46.692Z,29.83
2022-12-09T10:51:30.508Z,23.45
2022-12-09T10:54:04.429Z,31.35
2022-12-09T10:56:37.463Z,31.77
2022-12-09T10:59:22.689Z,29.55
2022-12-09T11:01:55.855Z,26.50
2022-12-09T11:04:44.369Z,22.58
2022-12-09T11:07:21.932Z,26.70
2022-12-09T11:10:02.993Z,25.50
2022-12-09T11:12:40.576Z,30.65
2022-12-09T11:15:29.696Z,26.65
2022-12-09T11:18:07.900Z,26.80
2022-12-09T11:20:36.502Z,23.67
2022-12-09T11:23:17.129Z,22.38
2022-12-09T11:26:02.548Z,19.50
2022-12-09T11:28:35.976Z,27.98
2022-12-09T11:31:33.712Z,27.30
2022-12-09T11:34:05.454Z,28.67
2022-12-09T11:36:44.089Z,21.65
2022-12-09T11:39:26.052Z,18.85
2022-12-09T11:42:19.059Z,25.73
2022-12-09T11:44:57.462Z,26.30
2022-12-09T11:47:57.264Z,25.67
2022-12-09T11:50:23.994Z,21.83
2022-12-09T11:53:11.964Z,27.70
2022-12-09T11:55:52.230Z,30.27
2022-12-09T11:58:38.918Z,29.65
2022-12-09T12:01:14.330Z,30.35
2022-12-09T12:03:52.093Z,32.78
2022-12-09T12:06:49.783Z,26.85
2022-12-09T12:09:44.283Z,31.45
2022-12-09T12:12:17.697Z,26.48
2022-12-09T12:14:45.318Z,27.33
2022-12-09T12:17:30.050Z,24.05
2022-12-09T12:19:57.595Z,25.15
2022-12-09T12:22:54.441Z,22.25
2022-12-09T12:25:39.876Z,20.85
2022-12-09T12:28:12.803Z,23.65
2022-12-09T12:30:57.696Z,27.85
2022-12-09T12:36:53.242Z,23.90
2022-12-09T12:39:28.867Z,27.92
2022-12-09T12:42:26.012Z,23.90
2022-12-09T12:45:33.361Z,25.25
2022-12-09T12:48:12.618Z,17.30
2022-12-09T12:51:18.599Z,20.63
2022-12-09T12:53:55.619Z,24.63
2022-12-09T12:57:11.233Z,24.65
2022-12-09T13:00:08.227Z,20.20
2022-12-09T13:02:47.945Z,27.40
2022-12-09T13:05:23.847Z,26.55
2022-12-09T13:08:04.082Z,24.73
2022-12-09T13:10:32.493Z,27.60
2022-12-09T13:13:02.101Z,23.73
2022-12-09T13:15:37.854Z,29.95
2022-12-09T13:18:32.581Z,26.83
2022-12-09T13:21:02.157Z,29.70
2022-12-09T13:23:54.089Z,25.83
2022-12-09T13:26:43.355Z,20.10
2022-12-09T13:29:23.503Z,27.27
2022-12-09T13:32:07.220Z,20.67
2022-12-09T13:34:44.702Z,23.55
2022-12-09T13:37:55.438Z,33.78
2022-12-09T13:40:39.626Z,32.20
2022-12-09T13:43:26.117Z,32.35
2022-12-09T13:45:58.981Z,23.58
2022-12-09T13:48:45.908Z,25.70
2022-12-09T13:51:20.996Z,21.27
2022-12-09T13:54:11.749Z,28.73
2022-12-09T13:56:39.964Z,28.00
2022-12-09T13:59:58.316Z,27.88
2022-12-09T14:02:42.007Z,29.95
2022-12-09T14:05:36.448Z,22.25
2022-12-09T14:08:27.096Z,22.17
2022-12-09T14:10:54.735Z,23.33
2022-12-09T14:13:35.300Z,18.15
2022-12-09T14:16:28.916Z,22.70
2022-12-09T14:18:57.284Z,21.88
2022-12-09T14:21:28.711Z,22.70
2022-12-09T14:24:18.421Z,22.08
2022-12-09T14:27:07.948Z,28.73
2022-12-09T14:29:54.716Z,25.92
2022-12-09T14:32:54.583Z,21.88
2022-12-09T14:35:43.558Z,27.38
2022-12-09T14:38:17.636Z,21.55
2022-12-09T14:41:12.580Z,19.48
2022-12-09T14:43:55.320Z,21.77
2022-12-09T14:46:34.973Z,30.45
2022-12-09T14:49:27.174Z,21.40
2022-12-09T14:52:11.246Z,23.35
2022-12-09T14:54:45.917Z,21.20
2022-12-09T14:57:38.209Z,24.67
2022-12-09T15:00:07.517Z,29.23
2022-12-09T15:02:35.543Z,27.27
2022-12-09T15:05:03.429Z,23.35
2022-12-09T15:07:32.712Z,25.58
2022-12-09T15:10:02.484Z,29.73
2022-12-09T15:12:33.066Z,19.58
2022-12-09T15:15:15.398Z,27.98
2022-12-09T15:17:44.164Z,22.98
2022-12-09T15:20:24.368Z,26.88
2022-12-09T15:22:55.907Z,29.83
2022-12-09T15:25:26.463Z,29.45
2022-12-09T15:28:04.773Z,28.55
2022-12-09T15:30:37.275Z,31.08
2022-12-09T15:33:12.672Z,24.63
2022-12-09T15:35:39.742Z,25.27
2022-12-09T15:38:08.701Z,30.00
2022-12-09T15:40:39.678Z,25.83
2022-12-09T15:43:10.890Z,22.45
2022-12-09T15:45:42.310Z,24.60
2022-12-09T15:48:16.255Z,22.17
2022-12-09T15:50:54.459Z,24.85
2022-12-09T15:53:31.601Z,22.85
2022-12-09T15:56:24.579Z,30.42
2022-12-09T15:58:57.297Z,24.67
2022-12-09T16:01:28.570Z,22.65
2022-12-09T16:03:58.062Z,25.23
2022-12-09T16:06:31.195Z,22.40
2022-12-09T16:08:59.346Z,23.55
2022-12-09T16:11:43.672Z,26.80
2022-12-09T16:14:12.081Z,25.23
2022-12-09T16:17:10.642Z,28.60
2022-12-09T16:19:38.282Z,24.02
2022-12-09T16:22:11.556Z,23.60
2022-12-09T16:25:16.611Z,20.50
2022-12-09T16:27:37.414Z,24.27
2022-12-09T16:30:21.523Z,28.60
2022-12-09T16:32:55.376Z,33.10
2022-12-09T16:35:42.944Z,27.73
2022-12-09T16:38:09.921Z,23.40
2022-12-09T16:40:46.117Z,27.60
2022-12-09T16:43:16.061Z,26.80
2022-12-09T16:45:44.029Z,28.80
2022-12-09T16:48:12.477Z,29.02
2022-12-09T16:50:59.241Z,28.20
2022-12-09T16:53:32.628Z,28.70
2022-12-09T16:56:01.634Z,25.33
2022-12-09T16:58:30.977Z,26.85
2022-12-09T17:00:59.282Z,23.90
2022-12-09T17:03:40.672Z,25.95
2022-12-09T17:06:13.558Z,24.90
2022-12-09T17:08:40.538Z,23.98
2022-12-09T17:11:07.440Z,23.83
2022-12-09T17:13:34.593Z,22.73
2022-12-09T17:16:01.864Z,33.03
2022-12-09T17:18:29.910Z,33.65
2022-12-09T17:21:04.593Z,26.58
2022-12-09T17:23:37.675Z,24.00
2022-12-09T17:26:10.240Z,19.85
2022-12-09T17:28:38.588Z,30.00
2022-12-09T17:31:10.479Z,30.48
2022-12-09T17:33:38.332Z,28.92
2022-12-09T17:36:07.386Z,49.53
2022-12-09T17:38:34.808Z,49.58
2022-12-09T17:41:07.315Z,31.27
2022-12-09T17:43:34.897Z,31.63
2022-12-09T17:46:03.353Z,27.73
2022-12-09T17:48:31.292Z,21.77
2022-12-09T17:50:58.418Z,18.23
2022-12-09T17:53:25.380Z,20.33
2022-12-09T17:55:52.292Z,24.23
2022-12-09T17:58:19.221Z,27.33
2022-12-09T18:00:47.912Z,21.05
2022-12-09T18:03:27.352Z,21.63
2022-12-09T18:06:02.065Z,24.48
2022-12-09T18:08:30.197Z,26.40
2022-12-09T18:10:57.321Z,26.63
2022-12-09T18:13:24.168Z,31.00
2022-12-09T18:15:54.190Z,30.83
2022-12-09T18:18:22.575Z,29.90
2022-12-09T18:20:49.851Z,31.13
2022-12-09T18:23:16.845Z,30.30
2022-12-09T18:25:43.727Z,25.40
2022-12-09T18:28:10.765Z,25.42
2022-12-09T18:30:39.504Z,27.33
2022-12-09T18:33:06.621Z,36.72
2022-12-09T18:35:33.981Z,37.10
2022-12-09T18:38:09.621Z,32.28
2022-12-09T18:41:00.482Z,30.80
2022-12-09T18:43:33.420Z,38.00
2022-12-09T18:46:07.113Z,32.95
2022-12-09T18:48:34.559Z,34.65
2022-12-09T18:51:01.701Z,28.58
2022-12-09T18:53:28.820Z,36.55
2022-12-09T18:55:56.026Z,31.27
2022-12-09T18:58:36.814Z,29.70
2022-12-09T19:01:24.018Z,43.08
2022-12-09T19:03:53.362Z,39.05
2022-12-09T19:06:22.122Z,39.05
2022-12-09T19:08:53.902Z,35.05
2022-12-09T19:11:22.741Z,35.55
2022-12-09T19:13:50.354Z,39.25
2022-12-09T19:16:17.468Z,30.17
2022-12-09T19:18:44.847Z,30.88
2022-12-09T19:21:14.022Z,21.05
2022-12-09T19:23:43.083Z,24.70
2022-12-09T19:26:21.984Z,27.33
2022-12-09T19:28:57.825Z,29.00
2022-12-09T19:31:29.559Z,26.75
2022-12-09T19:36:25.623Z,18.67
2022-12-09T19:38:53.276Z,28.92
2022-12-09T19:41:21.025Z,31.33
2022-12-09T19:43:48.663Z,23.60
2022-12-09T19:46:16.742Z,30.85
2022-12-09T19:48:44.608Z,29.48
2022-12-09T19:51:16.194Z,22.50
2022-12-09T19:53:44.068Z,29.65
2022-12-09T19:56:14.246Z,21.23
2022-12-09T19:58:43.909Z,31.42
2022-12-09T20:01:17.802Z,32.55
2022-12-09T20:03:47.295Z,27.40
2022-12-09T20:06:16.473Z,19.33
2022-12-09T20:08:44.437Z,18.40
2022-12-09T20:11:17.001Z,27.98
2022-12-09T20:13:44.167Z,23.10
2022-12-09T20:16:14.077Z,28.00
2022-12-09T20:18:42.958Z,23.08
2022-12-09T20:21:12.089Z,28.77
2022-12-09T20:23:41.095Z,28.70
2022-12-09T20:26:22.849Z,21.60
2022-12-09T20:28:52.076Z,27.10
2022-12-09T20:31:21.708Z,33.97
2022-12-09T20:33:52.022Z,31.55
2022-12-09T20:36:21.743Z,27.10
2022-12-09T20:38:54.761Z,26.95
2022-12-09T20:41:22.370Z,22.25
2022-12-09T20:43:51.335Z,42.50
2022-12-09T20:46:28.553Z,29.77
2022-12-09T20:48:57.674Z,23.40
2022-12-09T20:51:29.030Z,26.67
2022-12-09T20:53:57.434Z,24.67
2022-12-09T20:56:26.037Z,24.58
2022-12-09T20:58:54.310Z,31.13
2022-12-09T21:01:32.421Z,26.42
2022-12-09T21:04:01.211Z,27.05
2022-12-09T21:06:31.058Z,28.65
2022-12-09T21:09:10.162Z,28.30
2022-12-09T21:11:37.819Z,29.05
2022-12-09T21:14:06.915Z,23.17
2022-12-09T21:16:38.900Z,31.92
2022-12-09T21:19:09.987Z,30.65
2022-12-09T21:21:39.017Z,28.73
2022-12-09T21:24:07.568Z,29.73
2022-12-09T21:26:35.351Z,32.72
2022-12-09T21:29:03.134Z,26.10
2022-12-09T21:31:33.088Z,26.17
2022-12-09T21:34:03.481Z,27.20
2022-12-09T21:36:42.637Z,23.77
2022-12-09T21:39:13.210Z,31.08
2022-12-09T21:41:41.807Z,33.72
2022-12-09T21:44:17.849Z,24.02
2022-12-09T21:46:46.165Z,29.83
2022-12-09T21:49:14.763Z,23.20
2022-12-09T21:51:41.799Z,37.22
2022-12-09T21:54:08.966Z,28.40
2022-12-09T21:56:36.845Z,33.40
2022-12-09T21:59:06.014Z,26.75
2022-12-09T22:01:38.727Z,30.08
2022-12-09T22:04:09.039Z,24.90
2022-12-09T22:06:36.229Z,31.27
2022-12-09T22:09:06.150Z,28.38
2022-12-09T22:11:35.605Z,29.20
2022-12-09T22:14:02.914Z,32.75
2022-12-09T22:16:33.810Z,29.60
2022-12-09T22:19:06.011Z,37.60
2022-12-09T22:21:33.909Z,29.35
2022-12-09T22:24:06.428Z,19.77
2022-12-09T22:29:02.467Z,25.40
2022-12-09T22:31:34.182Z,44.90
2022-12-09T22:34:12.147Z,25.73
2022-12-09T22:36:40.397Z,36.55
2022-12-09T22:39:12.059Z,36.20
2022-12-09T22:41:39.007Z,36.72
2022-12-09T22:44:06.000Z,40.78
2022-12-09T22:46:34.717Z,34.30
2022-12-09T22:49:04.799Z,32.22
2022-12-09T22:51:36.113Z,27.90
2022-12-09T22:54:06.097Z,35.67
2022-12-09T22:56:36.327Z,29.60
2022-12-09T22:59:03.624Z,33.08
2022-12-09T23:01:36.759Z,25.95
2022-12-09T23:04:05.351Z,32.30
2022-12-09T23:06:36.285Z,31.67
2022-12-09T23:09:04.262Z,23.83
2022-12-09T23:11:31.731Z,29.95
2022-12-09T23:14:02.669Z,28.40
2022-12-09T23:16:29.743Z,27.97
2022-12-09T23:18:59.156Z,25.35
2022-12-09T23:21:32.244Z,30.35
2022-12-09T23:24:02.759Z,35.95
2022-12-09T23:26:32.810Z,33.53
2022-12-09T23:29:02.053Z,33.83
2022-12-09T23:31:33.379Z,28.73
2022-12-09T23:34:02.248Z,28.52
2022-12-09T23:36:31.966Z,27.80
2022-12-09T23:39:00.552Z,21.92
2022-12-09T23:41:28.303Z,25.90
2022-12-09T23:43:55.306Z,26.73
2022-12-09T23:46:25.511Z,28.02
2022-12-09T23:48:53.771Z,24.63
2022-12-09T23:51:23.453Z,33.03
2022-12-09T23:53:52.111Z,25.20
2022-12-09T23:56:21.827Z,39.45
2022-12-09T23:58:57.286Z,31.92
